createdAt,value
2017-08-29T00:00:28.309Z,19.48
2017-08-29T00:01:25.546Z,19.47
2017-08-29T00:02:22.789Z,19.46
2017-08-29T00:03:20.049Z,19.46
2017-08-29T00:04:17.270Z,19.44
2017-08-29T00:05:14.542Z,19.43
2017-08-29T00:06:11.778Z,19.42
2017-08-29T00:07:09.037Z,19.39
2017-08-29T00:08:06.277Z,19.39
2017-08-29T00:09:03.882Z,19.38
2017-08-29T00:10:01.109Z,19.36
2017-08-29T00:10:58.374Z,19.34
2017-08-29T00:11:55.607Z,19.33
2017-08-29T00:12:52.897Z,19.32
2017-08-29T00:13:50.104Z,19.31
2017-08-29T00:14:47.646Z,19.29
2017-08-29T00:15:45.297Z,19.28
2017-08-29T00:16:42.557Z,19.27
2017-08-29T00:17:39.805Z,19.26
2017-08-29T00:18:37.049Z,19.25
2017-08-29T00:19:34.297Z,19.24
2017-08-29T00:20:31.598Z,19.22
2017-08-29T00:21:28.815Z,19.20
2017-08-29T00:22:26.107Z,19.20
2017-08-29T00:23:23.365Z,19.18
2017-08-29T00:24:20.628Z,19.16
2017-08-29T00:25:17.877Z,19.15
2017-08-29T00:26:15.147Z,19.14
2017-08-29T00:27:12.387Z,19.14
2017-08-29T00:28:09.653Z,19.13
2017-08-29T00:29:06.874Z,19.11
2017-08-29T00:30:04.134Z,19.11
2017-08-29T00:31:01.366Z,19.09
2017-08-29T00:31:58.619Z,19.08
2017-08-29T00:32:55.877Z,19.07
2017-08-29T00:33:53.122Z,19.06
2017-08-29T00:34:50.421Z,19.05
2017-08-29T00:35:47.663Z,19.04
2017-08-29T00:36:44.895Z,19.02
2017-08-29T00:37:42.148Z,19.01
2017-08-29T00:38:39.388Z,19.00
2017-08-29T00:39:36.633Z,18.98
2017-08-29T00:40:33.857Z,18.97
2017-08-29T00:41:31.114Z,18.97
2017-08-29T00:42:28.354Z,18.95
2017-08-29T00:43:25.618Z,18.94
2017-08-29T00:44:22.866Z,18.92
2017-08-29T00:45:20.150Z,18.91
2017-08-29T00:46:17.345Z,18.90
2017-08-29T00:47:14.574Z,18.90
2017-08-29T00:48:11.793Z,18.88
2017-08-29T00:49:09.046Z,18.88
2017-08-29T00:50:06.272Z,18.86
2017-08-29T00:51:03.518Z,18.84
2017-08-29T00:52:00.762Z,18.82
2017-08-29T00:52:58.037Z,18.82
2017-08-29T00:53:55.264Z,18.80
2017-08-29T00:54:52.514Z,18.80
2017-08-29T00:55:49.726Z,18.77
2017-08-29T00:56:47.042Z,18.77
2017-08-29T00:57:44.274Z,18.76
2017-08-29T00:58:41.593Z,18.74
2017-08-29T00:59:38.821Z,18.74
2017-08-29T01:00:36.053Z,18.72
2017-08-29T01:01:33.276Z,18.71
2017-08-29T01:02:30.529Z,18.70
2017-08-29T01:03:27.755Z,18.69
2017-08-29T01:04:25.034Z,18.68
2017-08-29T01:05:22.261Z,18.66
2017-08-29T01:06:19.525Z,18.65
2017-08-29T01:07:16.752Z,18.64
2017-08-29T01:08:13.998Z,18.62
2017-08-29T01:09:11.245Z,18.61
2017-08-29T01:10:08.493Z,18.59
2017-08-29T01:11:05.721Z,18.60
2017-08-29T01:12:05.017Z,18.58
2017-08-29T01:13:02.256Z,18.57
2017-08-29T01:13:59.490Z,18.56
2017-08-29T01:14:56.749Z,18.55
2017-08-29T01:15:54.016Z,18.54
2017-08-29T01:16:53.346Z,18.53
2017-08-29T01:17:50.601Z,18.53
2017-08-29T01:18:47.825Z,18.51
2017-08-29T01:19:45.086Z,18.49
2017-08-29T01:20:42.310Z,18.49
2017-08-29T01:21:39.553Z,18.47
2017-08-29T01:22:36.777Z,18.46
2017-08-29T01:23:34.019Z,18.45
2017-08-29T01:24:31.277Z,18.45
2017-08-29T01:25:28.526Z,18.42
2017-08-29T01:26:25.811Z,18.41
2017-08-29T01:27:23.274Z,18.41
2017-08-29T01:28:20.497Z,18.39
2017-08-29T01:29:17.773Z,18.39
2017-08-29T01:30:15.002Z,18.38
2017-08-29T01:31:12.293Z,18.35
2017-08-29T01:32:09.519Z,18.36
2017-08-29T01:33:06.796Z,18.33
2017-08-29T01:34:04.001Z,18.32
2017-08-29T01:35:01.266Z,18.31
2017-08-29T01:35:58.513Z,18.30
2017-08-29T01:36:55.781Z,18.29
2017-08-29T01:37:52.995Z,18.29
2017-08-29T01:38:50.242Z,18.27
2017-08-29T01:39:47.481Z,18.26
2017-08-29T01:40:44.745Z,18.25
2017-08-29T01:41:41.985Z,18.24
2017-08-29T01:42:39.253Z,18.23
2017-08-29T01:43:36.507Z,18.24
2017-08-29T01:44:33.755Z,18.21
2017-08-29T01:45:30.998Z,18.20
2017-08-29T01:46:28.278Z,18.18
2017-08-29T01:47:25.530Z,18.18
2017-08-29T01:48:22.793Z,18.17
2017-08-29T01:49:20.009Z,18.17
2017-08-29T01:50:17.282Z,18.16
2017-08-29T01:51:14.513Z,18.14
2017-08-29T01:52:11.768Z,18.12
2017-08-29T01:53:08.997Z,18.11
2017-08-29T01:54:06.275Z,18.11
2017-08-29T01:55:03.514Z,18.09
2017-08-29T01:56:00.782Z,18.09
2017-08-29T01:56:58.031Z,18.08
2017-08-29T01:57:55.306Z,18.06
2017-08-29T01:58:52.533Z,18.06
2017-08-29T01:59:49.772Z,18.04
2017-08-29T02:00:47.005Z,18.03
2017-08-29T02:01:44.265Z,18.03
2017-08-29T02:02:41.514Z,18.01
2017-08-29T02:03:38.777Z,18.00
2017-08-29T02:04:36.005Z,17.99
2017-08-29T02:05:33.282Z,17.98
2017-08-29T02:06:30.521Z,17.98
2017-08-29T02:07:27.781Z,17.96
2017-08-29T02:08:25.021Z,17.95
2017-08-29T02:09:22.308Z,17.95
2017-08-29T02:10:19.549Z,17.94
2017-08-29T02:11:16.834Z,17.92
2017-08-29T02:12:14.064Z,17.90
2017-08-29T02:13:11.342Z,17.90
2017-08-29T02:14:08.581Z,17.90
2017-08-29T02:15:05.838Z,17.88
2017-08-29T02:16:03.085Z,17.87
2017-08-29T02:17:00.343Z,17.86
2017-08-29T02:17:57.590Z,17.85
2017-08-29T02:18:54.841Z,17.84
2017-08-29T02:19:52.070Z,17.82
2017-08-29T02:20:49.345Z,17.82
2017-08-29T02:21:46.598Z,17.81
2017-08-29T02:22:43.861Z,17.79
2017-08-29T02:23:41.092Z,17.79
2017-08-29T02:24:38.369Z,17.77
2017-08-29T02:25:35.601Z,17.76
2017-08-29T02:26:32.872Z,17.74
2017-08-29T02:27:30.106Z,17.74
2017-08-29T02:28:27.362Z,17.74
2017-08-29T02:29:24.573Z,17.72
2017-08-29T02:30:21.877Z,17.72
2017-08-29T02:31:19.958Z,17.70
2017-08-29T02:32:17.246Z,17.69
2017-08-29T02:33:14.606Z,17.67
2017-08-29T02:34:11.847Z,17.68
2017-08-29T02:35:09.081Z,17.66
2017-08-29T02:36:06.347Z,17.65
2017-08-29T02:37:03.602Z,17.64
2017-08-29T02:38:00.865Z,17.64
2017-08-29T02:38:58.098Z,17.61
2017-08-29T02:39:55.358Z,17.61
2017-08-29T02:40:52.610Z,17.59
2017-08-29T02:41:49.883Z,17.58
2017-08-29T02:42:47.110Z,17.58
2017-08-29T02:43:44.356Z,17.56
2017-08-29T02:44:41.579Z,17.56
2017-08-29T02:45:38.833Z,17.55
2017-08-29T02:46:36.262Z,17.54
2017-08-29T02:47:33.529Z,17.53
2017-08-29T02:48:30.762Z,17.52
2017-08-29T02:49:28.010Z,17.51
2017-08-29T02:50:25.253Z,17.50
2017-08-29T02:51:22.509Z,17.50
2017-08-29T02:52:19.738Z,17.48
2017-08-29T02:53:16.995Z,17.47
2017-08-29T02:54:14.222Z,17.46
2017-08-29T02:55:11.479Z,17.46
2017-08-29T02:56:08.729Z,17.43
2017-08-29T02:57:06.017Z,17.43
2017-08-29T02:58:03.261Z,17.43
2017-08-29T02:59:00.516Z,17.41
2017-08-29T02:59:57.753Z,17.40
2017-08-29T03:00:55.016Z,17.39
2017-08-29T03:01:52.266Z,17.39
2017-08-29T03:02:49.515Z,17.36
2017-08-29T03:03:46.728Z,17.36
2017-08-29T03:04:43.980Z,17.35
2017-08-29T03:05:41.222Z,17.34
2017-08-29T03:06:38.481Z,17.32
2017-08-29T03:07:35.731Z,17.32
2017-08-29T03:08:33.081Z,17.31
2017-08-29T03:09:30.310Z,17.30
2017-08-29T03:10:27.578Z,17.30
2017-08-29T03:11:24.809Z,17.29
2017-08-29T03:12:22.076Z,17.27
2017-08-29T03:13:19.313Z,17.27
2017-08-29T03:14:18.608Z,17.26
2017-08-29T03:15:17.905Z,17.24
2017-08-29T03:16:15.186Z,17.24
2017-08-29T03:17:12.505Z,17.23
2017-08-29T03:18:09.771Z,17.21
2017-08-29T03:19:07.014Z,17.20
2017-08-29T03:20:04.257Z,17.19
2017-08-29T03:21:01.496Z,17.19
2017-08-29T03:21:58.747Z,17.18
2017-08-29T03:22:56.036Z,17.16
2017-08-29T03:23:53.297Z,17.15
2017-08-29T03:24:50.533Z,17.13
2017-08-29T03:25:47.801Z,17.14
2017-08-29T03:26:45.053Z,17.12
2017-08-29T03:27:42.341Z,17.11
2017-08-29T03:28:39.569Z,17.11
2017-08-29T03:29:36.824Z,17.09
2017-08-29T03:30:34.050Z,17.09
2017-08-29T03:31:31.316Z,17.09
2017-08-29T03:32:28.649Z,17.07
2017-08-29T03:33:26.120Z,17.07
2017-08-29T03:34:23.491Z,17.04
2017-08-29T03:35:20.808Z,17.04
2017-08-29T03:36:18.065Z,17.03
2017-08-29T03:37:15.349Z,17.02
2017-08-29T03:38:12.625Z,17.01
2017-08-29T03:39:09.905Z,17.00
2017-08-29T03:40:07.146Z,16.99
2017-08-29T03:41:04.409Z,16.98
2017-08-29T03:42:01.649Z,16.98
2017-08-29T03:42:58.944Z,16.98
2017-08-29T03:43:56.200Z,16.97
2017-08-29T03:44:53.457Z,16.96
2017-08-29T03:45:50.699Z,16.95
2017-08-29T03:46:48.037Z,16.95
2017-08-29T03:47:45.314Z,16.92
2017-08-29T03:48:42.596Z,16.93
2017-08-29T03:49:39.853Z,16.91
2017-08-29T03:50:37.114Z,16.89
2017-08-29T03:51:34.397Z,16.89
2017-08-29T03:52:31.677Z,16.89
2017-08-29T03:53:28.930Z,16.88
2017-08-29T03:54:26.182Z,16.86
2017-08-29T03:55:23.413Z,16.87
2017-08-29T03:56:20.697Z,16.84
2017-08-29T03:57:17.935Z,16.84
2017-08-29T03:58:15.229Z,16.83
2017-08-29T03:59:12.481Z,16.82
2017-08-29T04:00:09.740Z,16.80
2017-08-29T04:01:07.054Z,16.80
2017-08-29T04:02:04.327Z,16.79
2017-08-29T04:03:01.598Z,16.78
2017-08-29T04:03:58.869Z,16.77
2017-08-29T04:04:56.245Z,16.76
2017-08-29T04:05:53.528Z,16.75
2017-08-29T04:06:50.781Z,16.74
2017-08-29T04:07:48.025Z,16.74
2017-08-29T04:08:45.273Z,16.73
2017-08-29T04:09:42.537Z,16.73
2017-08-29T04:10:39.793Z,16.71
2017-08-29T04:11:37.042Z,16.69
2017-08-29T04:12:34.270Z,16.68
2017-08-29T04:13:31.551Z,16.68
2017-08-29T04:14:28.805Z,16.67
2017-08-29T04:15:26.060Z,16.67
2017-08-29T04:16:23.298Z,16.66
2017-08-29T04:17:20.569Z,16.65
2017-08-29T04:18:17.813Z,16.63
2017-08-29T04:19:15.085Z,16.63
2017-08-29T04:20:12.321Z,16.62
2017-08-29T04:21:09.581Z,16.61
2017-08-29T04:22:06.812Z,16.61
2017-08-29T04:23:04.084Z,16.58
2017-08-29T04:24:01.349Z,16.58
2017-08-29T04:24:58.609Z,16.58
2017-08-29T04:25:55.912Z,16.57
2017-08-29T04:26:53.620Z,16.57
2017-08-29T04:27:50.874Z,16.55
2017-08-29T04:28:48.182Z,16.55
2017-08-29T04:29:45.417Z,16.53
2017-08-29T04:30:42.908Z,16.52
2017-08-29T04:31:40.155Z,16.51
2017-08-29T04:32:37.434Z,16.50
2017-08-29T04:33:34.683Z,16.49
2017-08-29T04:34:31.977Z,16.49
2017-08-29T04:35:29.209Z,16.48
2017-08-29T04:36:26.469Z,16.47
2017-08-29T04:37:23.721Z,16.46
2017-08-29T04:38:20.994Z,16.46
2017-08-29T04:39:18.250Z,16.46
2017-08-29T04:40:15.510Z,16.44
2017-08-29T04:41:12.783Z,16.44
2017-08-29T04:42:10.045Z,16.43
2017-08-29T04:43:07.277Z,16.42
2017-08-29T04:44:04.529Z,16.38
2017-08-29T04:45:01.782Z,16.39
2017-08-29T04:45:59.046Z,16.40
2017-08-29T04:46:56.517Z,16.38
2017-08-29T04:47:54.047Z,16.36
2017-08-29T04:48:51.298Z,16.36
2017-08-29T04:49:48.597Z,16.36
2017-08-29T04:50:45.850Z,16.35
2017-08-29T04:51:43.130Z,16.33
2017-08-29T04:52:40.378Z,16.32
2017-08-29T04:53:37.654Z,16.32
2017-08-29T04:54:34.917Z,16.31
2017-08-29T04:55:32.202Z,16.30
2017-08-29T04:56:29.457Z,16.30
2017-08-29T04:57:26.736Z,16.29
2017-08-29T04:58:24.338Z,16.29
2017-08-29T04:59:21.626Z,16.27
2017-08-29T05:00:18.887Z,16.27
2017-08-29T05:01:16.158Z,16.26
2017-08-29T05:02:13.419Z,16.25
2017-08-29T05:03:10.681Z,16.25
2017-08-29T05:04:07.953Z,16.25
2017-08-29T05:05:05.278Z,16.22
2017-08-29T05:06:02.534Z,16.22
2017-08-29T05:06:59.809Z,16.22
2017-08-29T05:07:57.076Z,16.20
2017-08-29T05:08:54.354Z,16.20
2017-08-29T05:09:51.613Z,16.19
2017-08-29T05:10:48.919Z,16.18
2017-08-29T05:11:46.180Z,16.19
2017-08-29T05:12:43.485Z,16.18
2017-08-29T05:13:40.776Z,16.17
2017-08-29T05:14:38.052Z,16.17
2017-08-29T05:15:35.337Z,16.15
2017-08-29T05:16:36.581Z,16.16
2017-08-29T05:17:37.818Z,16.14
2017-08-29T05:18:39.042Z,16.14
2017-08-29T05:19:40.273Z,16.11
2017-08-29T05:20:41.550Z,16.12
2017-08-29T05:21:42.773Z,16.10
2017-08-29T05:22:43.996Z,16.10
2017-08-29T05:23:45.341Z,16.08
2017-08-29T05:24:46.613Z,16.08
2017-08-29T05:25:47.995Z,16.07
2017-08-29T05:26:49.241Z,16.06
2017-08-29T05:27:50.468Z,16.06
2017-08-29T05:28:51.790Z,16.05
2017-08-29T05:29:53.018Z,16.04
2017-08-29T05:30:54.249Z,16.02
2017-08-29T05:31:55.479Z,16.02
2017-08-29T05:32:56.704Z,16.02
2017-08-29T05:33:57.926Z,16.00
2017-08-29T05:34:59.150Z,16.01
2017-08-29T05:36:00.394Z,16.00
2017-08-29T05:37:01.605Z,15.99
2017-08-29T05:38:02.863Z,15.99
2017-08-29T05:39:04.096Z,15.98
2017-08-29T05:40:05.318Z,15.97
2017-08-29T05:41:06.562Z,15.98
2017-08-29T05:42:07.763Z,15.97
2017-08-29T05:43:08.966Z,15.96
2017-08-29T05:44:10.178Z,15.96
2017-08-29T05:45:11.438Z,15.95
2017-08-29T05:46:12.696Z,15.95
2017-08-29T05:47:13.941Z,15.96
2017-08-29T05:48:15.165Z,15.94
2017-08-29T05:49:16.389Z,15.94
2017-08-29T05:50:17.594Z,15.93
2017-08-29T05:51:18.839Z,15.92
2017-08-29T05:52:20.066Z,15.93
2017-08-29T05:53:21.258Z,15.91
2017-08-29T05:54:22.466Z,15.91
2017-08-29T05:55:23.678Z,15.92
2017-08-29T05:56:24.893Z,15.92
2017-08-29T05:57:26.110Z,15.91
2017-08-29T05:58:27.327Z,15.91
2017-08-29T05:59:28.542Z,15.91
2017-08-29T06:00:29.753Z,15.90
2017-08-29T06:01:30.990Z,15.90
2017-08-29T06:02:32.215Z,15.90
2017-08-29T06:03:33.451Z,15.90
2017-08-29T06:04:34.669Z,15.89
2017-08-29T06:05:35.878Z,15.89
2017-08-29T06:06:37.101Z,15.90
2017-08-29T06:07:38.321Z,15.89
2017-08-29T06:08:39.600Z,15.90
2017-08-29T06:09:40.822Z,15.90
2017-08-29T06:10:42.051Z,15.89
2017-08-29T06:11:43.318Z,15.90
2017-08-29T06:12:44.530Z,15.91
2017-08-29T06:13:45.739Z,15.91
2017-08-29T06:14:46.953Z,15.91
2017-08-29T06:15:48.170Z,15.90
2017-08-29T06:16:49.406Z,15.91
2017-08-29T06:17:50.625Z,15.92
2017-08-29T06:18:51.863Z,15.92
2017-08-29T06:19:53.117Z,15.93
2017-08-29T06:20:54.327Z,15.93
2017-08-29T06:21:55.558Z,15.94
2017-08-29T06:22:56.780Z,15.94
2017-08-29T06:23:57.982Z,15.94
2017-08-29T06:24:59.189Z,15.94
2017-08-29T06:26:00.419Z,15.97
2017-08-29T06:27:01.670Z,15.96
2017-08-29T06:28:02.897Z,15.97
2017-08-29T06:29:04.118Z,15.97
2017-08-29T06:30:05.330Z,15.98
2017-08-29T06:31:06.534Z,15.98
2017-08-29T06:32:07.762Z,15.99
2017-08-29T06:33:08.970Z,16.00
2017-08-29T06:34:10.184Z,16.01
2017-08-29T06:35:11.398Z,16.00
2017-08-29T06:36:12.629Z,16.02
2017-08-29T06:37:13.871Z,16.02
2017-08-29T06:38:15.101Z,16.03
2017-08-29T06:39:16.309Z,16.07
2017-08-29T06:40:17.519Z,16.08
2017-08-29T06:41:18.730Z,16.08
2017-08-29T06:42:19.964Z,16.09
2017-08-29T06:43:21.186Z,16.10
2017-08-29T06:44:22.389Z,16.12
2017-08-29T06:45:23.590Z,16.14
2017-08-29T06:46:24.810Z,16.15
2017-08-29T06:47:26.041Z,16.18
2017-08-29T06:48:27.255Z,16.19
2017-08-29T06:49:30.538Z,16.21
2017-08-29T06:50:31.745Z,16.22
2017-08-29T06:51:32.958Z,16.26
2017-08-29T06:52:34.184Z,16.28
2017-08-29T06:53:35.389Z,16.28
2017-08-29T06:54:36.585Z,16.32
2017-08-29T06:55:37.793Z,16.33
2017-08-29T06:56:39.001Z,16.35
2017-08-29T06:57:40.238Z,16.36
2017-08-29T06:58:41.506Z,16.37
2017-08-29T06:59:42.766Z,16.40
2017-08-29T07:00:43.977Z,16.42
2017-08-29T07:01:45.185Z,16.43
2017-08-29T07:02:46.431Z,16.46
2017-08-29T07:03:47.814Z,16.48
2017-08-29T07:04:49.350Z,16.51
2017-08-29T07:05:50.557Z,16.52
2017-08-29T07:06:52.178Z,16.54
2017-08-29T07:07:53.652Z,16.56
2017-08-29T07:08:54.845Z,16.59
2017-08-29T07:09:56.077Z,16.60
2017-08-29T07:10:57.281Z,16.61
2017-08-29T07:11:58.494Z,16.63
2017-08-29T07:12:59.733Z,16.64
2017-08-29T07:14:03.005Z,16.66
2017-08-29T07:15:04.282Z,16.66
2017-08-29T07:16:05.545Z,16.68
2017-08-29T07:17:08.818Z,16.70
2017-08-29T07:18:10.053Z,16.71
2017-08-29T07:19:11.271Z,16.72
2017-08-29T07:20:12.488Z,16.74
2017-08-29T07:21:13.697Z,16.75
2017-08-29T07:22:14.929Z,16.77
2017-08-29T07:23:16.162Z,16.77
2017-08-29T07:24:17.361Z,16.79
2017-08-29T07:25:18.567Z,16.80
2017-08-29T07:26:19.823Z,16.81
2017-08-29T07:27:21.042Z,16.84
2017-08-29T07:28:22.283Z,16.84
2017-08-29T07:29:23.493Z,16.85
2017-08-29T07:30:24.709Z,16.87
2017-08-29T07:31:25.942Z,16.88
2017-08-29T07:32:27.153Z,16.91
2017-08-29T07:33:28.398Z,16.92
2017-08-29T07:34:29.723Z,16.92
2017-08-29T07:35:30.979Z,16.95
2017-08-29T07:36:32.181Z,16.95
2017-08-29T07:37:33.425Z,16.97
2017-08-29T07:38:34.673Z,16.98
2017-08-29T07:39:35.917Z,17.01
2017-08-29T07:40:37.122Z,17.02
2017-08-29T07:41:38.334Z,17.04
2017-08-29T07:42:39.547Z,17.06
2017-08-29T07:43:40.785Z,17.09
2017-08-29T07:44:42.009Z,17.09
2017-08-29T07:45:43.221Z,17.10
2017-08-29T07:46:44.417Z,17.13
2017-08-29T07:47:45.654Z,17.15
2017-08-29T07:48:46.886Z,17.15
2017-08-29T07:49:48.079Z,17.18
2017-08-29T07:50:49.331Z,17.17
2017-08-29T07:51:50.538Z,17.20
2017-08-29T07:52:51.761Z,17.22
2017-08-29T07:53:53.002Z,17.24
2017-08-29T07:54:54.226Z,17.25
2017-08-29T07:55:55.506Z,17.27
2017-08-29T07:56:56.713Z,17.28
2017-08-29T07:57:57.933Z,17.30
2017-08-29T07:58:59.170Z,17.33
2017-08-29T08:00:00.382Z,17.32
2017-08-29T08:01:01.602Z,17.35
2017-08-29T08:02:02.821Z,17.36
2017-08-29T08:03:04.041Z,17.38
2017-08-29T08:04:05.283Z,17.41
2017-08-29T08:05:06.559Z,17.40
2017-08-29T08:06:07.777Z,17.44
2017-08-29T08:07:08.997Z,17.46
2017-08-29T08:08:10.205Z,17.48
2017-08-29T08:09:11.425Z,17.49
2017-08-29T08:10:12.658Z,17.52
2017-08-29T08:11:15.925Z,17.53
2017-08-29T08:12:17.145Z,17.56
2017-08-29T08:13:20.405Z,17.57
2017-08-29T08:14:23.691Z,17.60
2017-08-29T08:15:26.964Z,17.61
2017-08-29T08:16:28.210Z,17.63
2017-08-29T08:17:29.455Z,17.66
2017-08-29T08:18:30.682Z,17.69
2017-08-29T08:19:31.917Z,17.71
2017-08-29T08:20:33.150Z,17.73
2017-08-29T08:21:34.366Z,17.75
2017-08-29T08:22:35.577Z,17.78
2017-08-29T08:23:36.802Z,17.80
2017-08-29T08:24:38.029Z,17.81
2017-08-29T08:25:39.237Z,17.85
2017-08-29T08:26:40.458Z,17.86
2017-08-29T08:27:41.677Z,17.89
2017-08-29T08:28:42.906Z,17.90
2017-08-29T08:29:44.156Z,17.92
2017-08-29T08:30:45.366Z,17.96
2017-08-29T08:31:46.591Z,17.97
2017-08-29T08:32:47.805Z,17.99
2017-08-29T08:33:49.022Z,18.03
2017-08-29T08:34:50.277Z,18.06
2017-08-29T08:35:51.519Z,18.07
2017-08-29T08:36:52.746Z,18.10
2017-08-29T08:37:53.950Z,18.13
2017-08-29T08:38:55.173Z,18.16
2017-08-29T08:39:56.413Z,18.18
2017-08-29T08:40:57.633Z,18.19
2017-08-29T08:41:58.870Z,18.24
2017-08-29T08:43:00.081Z,18.25
2017-08-29T08:44:01.456Z,18.27
2017-08-29T08:45:02.749Z,18.31
2017-08-29T08:46:04.027Z,18.34
2017-08-29T08:47:05.307Z,18.36
2017-08-29T08:48:06.541Z,18.39
2017-08-29T08:49:07.769Z,18.42
2017-08-29T08:50:09.029Z,18.45
2017-08-29T08:51:10.270Z,18.47
2017-08-29T08:52:11.501Z,18.51
2017-08-29T08:53:12.730Z,18.54
2017-08-29T08:54:13.942Z,18.55
2017-08-29T08:55:15.168Z,18.58
2017-08-29T08:56:16.368Z,18.62
2017-08-29T08:57:17.582Z,18.64
2017-08-29T08:58:18.814Z,18.67
2017-08-29T08:59:20.052Z,18.71
2017-08-29T09:00:21.317Z,18.72
2017-08-29T09:01:22.541Z,18.75
2017-08-29T09:02:23.753Z,18.78
2017-08-29T09:03:24.958Z,18.82
2017-08-29T09:04:26.166Z,18.84
2017-08-29T09:05:27.489Z,18.88
2017-08-29T09:06:28.710Z,18.90
2017-08-29T09:07:29.937Z,18.93
2017-08-29T09:08:31.149Z,18.95
2017-08-29T09:09:32.380Z,18.99
2017-08-29T09:10:33.601Z,19.01
2017-08-29T09:11:34.826Z,19.04
2017-08-29T09:12:36.035Z,19.08
2017-08-29T09:13:37.282Z,19.10
2017-08-29T09:14:38.541Z,19.13
2017-08-29T09:15:39.817Z,19.15
2017-08-29T09:16:41.137Z,19.19
2017-08-29T09:17:42.441Z,19.24
2017-08-29T09:18:43.661Z,19.26
2017-08-29T09:19:44.923Z,19.30
2017-08-29T09:20:46.163Z,19.34
2017-08-29T09:21:47.425Z,19.37
2017-08-29T09:22:48.754Z,19.40
2017-08-29T09:23:49.986Z,19.43
2017-08-29T09:24:51.217Z,19.45
2017-08-29T09:25:52.516Z,19.47
2017-08-29T09:26:53.819Z,19.51
2017-08-29T09:27:55.044Z,19.54
2017-08-29T09:28:56.271Z,19.57
2017-08-29T09:29:57.647Z,19.59
2017-08-29T09:30:58.929Z,19.63
2017-08-29T09:32:00.161Z,19.67
2017-08-29T09:33:01.357Z,19.70
2017-08-29T09:34:02.610Z,19.73
2017-08-29T09:35:03.837Z,19.75
2017-08-29T09:36:05.090Z,19.79
2017-08-29T09:37:06.296Z,19.81
2017-08-29T09:38:07.554Z,19.83
2017-08-29T09:39:08.792Z,19.87
2017-08-29T09:40:10.073Z,19.90
2017-08-29T09:41:11.322Z,19.93
2017-08-29T09:42:12.554Z,19.96
2017-08-29T09:43:13.775Z,19.99
2017-08-29T09:44:15.008Z,20.04
2017-08-29T09:45:16.232Z,20.07
2017-08-29T09:46:17.591Z,20.10
2017-08-29T09:47:18.818Z,20.13
2017-08-29T09:48:20.035Z,20.17
2017-08-29T09:49:21.253Z,20.20
2017-08-29T09:50:22.477Z,20.23
2017-08-29T09:51:23.714Z,20.27
2017-08-29T09:52:25.085Z,20.30
2017-08-29T09:53:26.539Z,20.33
2017-08-29T09:54:27.909Z,20.36
2017-08-29T09:55:29.127Z,20.39
2017-08-29T09:56:30.377Z,20.42
2017-08-29T09:57:31.597Z,20.45
2017-08-29T09:58:32.885Z,20.48
2017-08-29T09:59:36.219Z,20.52
2017-08-29T10:00:37.602Z,20.56
2017-08-29T10:01:38.891Z,20.59
2017-08-29T10:02:40.126Z,20.63
2017-08-29T10:03:41.346Z,20.66
2017-08-29T10:04:42.569Z,20.71
2017-08-29T10:05:43.768Z,20.72
2017-08-29T10:06:45.026Z,20.75
2017-08-29T10:07:46.235Z,20.77
2017-08-29T10:08:47.570Z,20.80
2017-08-29T10:09:48.789Z,20.84
2017-08-29T10:10:50.005Z,20.85
2017-08-29T10:11:51.257Z,20.89
2017-08-29T10:12:52.595Z,20.91
2017-08-29T10:13:54.062Z,20.94
2017-08-29T10:14:55.286Z,20.97
2017-08-29T10:15:56.509Z,21.00
2017-08-29T10:16:57.774Z,21.04
2017-08-29T10:17:58.980Z,21.07
2017-08-29T10:19:00.193Z,21.10
2017-08-29T10:20:01.533Z,21.14
2017-08-29T10:21:02.857Z,21.16
2017-08-29T10:22:04.086Z,21.19
2017-08-29T10:23:05.318Z,21.22
2017-08-29T10:24:06.574Z,21.26
2017-08-29T10:25:07.795Z,21.29
2017-08-29T10:26:09.014Z,21.31
2017-08-29T10:27:10.316Z,21.35
2017-08-29T10:28:11.613Z,21.37
2017-08-29T10:29:12.893Z,21.39
2017-08-29T10:30:14.093Z,21.43
2017-08-29T10:31:15.304Z,21.46
2017-08-29T10:32:16.533Z,21.48
2017-08-29T10:33:17.756Z,21.53
2017-08-29T10:34:19.061Z,21.55
2017-08-29T10:35:20.279Z,21.58
2017-08-29T10:36:21.575Z,21.60
2017-08-29T10:37:22.922Z,21.63
2017-08-29T10:38:24.146Z,21.67
2017-08-29T10:39:25.364Z,21.70
2017-08-29T10:40:26.582Z,21.74
2017-08-29T10:41:27.802Z,21.76
2017-08-29T10:42:29.045Z,21.80
2017-08-29T10:43:30.282Z,21.82
2017-08-29T10:44:31.506Z,21.87
2017-08-29T10:45:33.104Z,21.89
2017-08-29T10:46:34.313Z,21.92
2017-08-29T10:47:35.546Z,21.96
2017-08-29T10:48:36.810Z,21.99
2017-08-29T10:49:38.037Z,22.02
2017-08-29T10:50:39.249Z,22.05
2017-08-29T10:51:40.670Z,22.08
2017-08-29T10:52:42.011Z,22.11
2017-08-29T10:53:43.229Z,22.14
2017-08-29T10:54:44.442Z,22.17
2017-08-29T10:55:45.754Z,22.19
2017-08-29T10:56:47.174Z,22.23
2017-08-29T10:57:48.565Z,22.26
2017-08-29T10:58:49.834Z,22.27
2017-08-29T10:59:51.139Z,22.29
2017-08-29T11:00:52.413Z,22.33
2017-08-29T11:01:53.647Z,22.36
2017-08-29T11:02:54.889Z,22.39
2017-08-29T11:03:56.130Z,22.41
2017-08-29T11:04:57.341Z,22.44
2017-08-29T11:05:58.562Z,22.47
2017-08-29T11:06:59.797Z,22.49
2017-08-29T11:08:01.056Z,22.51
2017-08-29T11:09:02.285Z,22.54
2017-08-29T11:10:03.654Z,22.57
2017-08-29T11:11:04.885Z,22.58
2017-08-29T11:12:06.101Z,22.61
2017-08-29T11:13:07.413Z,22.65
2017-08-29T11:14:08.634Z,22.66
2017-08-29T11:15:09.846Z,22.70
2017-08-29T11:16:11.138Z,22.73
2017-08-29T11:17:12.365Z,22.74
2017-08-29T11:18:13.626Z,22.77
2017-08-29T11:19:14.879Z,22.79
2017-08-29T11:20:16.216Z,22.82
2017-08-29T11:21:17.473Z,22.83
2017-08-29T11:22:18.925Z,22.87
2017-08-29T11:23:20.198Z,22.89
2017-08-29T11:24:21.433Z,22.91
2017-08-29T11:25:22.693Z,22.95
2017-08-29T11:26:23.981Z,22.97
2017-08-29T11:27:27.443Z,22.98
2017-08-29T11:28:28.950Z,23.00
2017-08-29T11:29:30.193Z,23.03
2017-08-29T11:30:31.459Z,23.05
2017-08-29T11:31:32.917Z,23.07
2017-08-29T11:32:34.225Z,23.09
2017-08-29T11:33:35.521Z,23.12
2017-08-29T11:34:36.837Z,23.14
2017-08-29T11:35:38.242Z,23.16
2017-08-29T11:36:39.517Z,23.20
2017-08-29T11:37:42.769Z,23.22
2017-08-29T11:38:44.189Z,23.23
2017-08-29T11:39:45.478Z,23.26
2017-08-29T11:40:46.819Z,23.30
2017-08-29T11:41:48.136Z,23.32
2017-08-29T11:42:49.430Z,23.34
2017-08-29T11:43:50.752Z,23.37
2017-08-29T11:44:52.032Z,23.38
2017-08-29T11:45:53.481Z,23.41
2017-08-29T11:46:54.971Z,23.44
2017-08-29T11:47:56.297Z,23.46
2017-08-29T11:48:57.591Z,23.47
2017-08-29T11:49:58.887Z,23.49
2017-08-29T11:51:00.235Z,23.51
2017-08-29T11:52:01.558Z,23.52
2017-08-29T11:53:02.953Z,23.54
2017-08-29T11:54:04.353Z,23.57
2017-08-29T11:55:05.806Z,23.60
2017-08-29T11:56:07.090Z,23.62
2017-08-29T11:57:08.393Z,23.66
2017-08-29T11:58:09.714Z,23.67
2017-08-29T11:59:11.029Z,23.70
2017-08-29T12:00:12.420Z,23.72
2017-08-29T12:01:13.761Z,23.73
2017-08-29T12:02:17.139Z,23.75
2017-08-29T12:03:18.442Z,23.76
2017-08-29T12:04:21.739Z,23.79
2017-08-29T12:05:25.012Z,23.80
2017-08-29T12:06:26.274Z,23.81
2017-08-29T12:07:27.585Z,23.83
2017-08-29T12:08:28.892Z,23.86
2017-08-29T12:09:30.225Z,23.87
2017-08-29T12:10:31.490Z,23.90
2017-08-29T12:11:32.771Z,23.90
2017-08-29T12:12:34.021Z,23.93
2017-08-29T12:13:37.333Z,23.94
2017-08-29T12:14:38.609Z,23.95
2017-08-29T12:15:39.829Z,23.98
2017-08-29T12:16:41.043Z,24.00
2017-08-29T12:17:42.257Z,24.02
2017-08-29T12:18:43.475Z,24.04
2017-08-29T12:19:44.725Z,24.05
2017-08-29T12:20:45.974Z,24.07
2017-08-29T12:21:47.193Z,24.09
2017-08-29T12:22:48.410Z,24.11
2017-08-29T12:23:49.625Z,24.13
2017-08-29T12:24:50.871Z,24.14
2017-08-29T12:25:52.082Z,24.16
2017-08-29T12:26:53.327Z,24.17
2017-08-29T12:27:54.572Z,24.19
2017-08-29T12:28:55.844Z,24.22
2017-08-29T12:29:57.106Z,24.23
2017-08-29T12:30:58.321Z,24.24
2017-08-29T12:31:59.539Z,24.26
2017-08-29T12:33:00.839Z,24.28
2017-08-29T12:34:02.114Z,24.30
2017-08-29T12:35:03.411Z,24.32
2017-08-29T12:36:04.670Z,24.34
2017-08-29T12:37:05.879Z,24.36
2017-08-29T12:38:07.242Z,24.40
2017-08-29T12:39:08.613Z,24.40
2017-08-29T12:40:09.845Z,24.43
2017-08-29T12:41:11.076Z,24.43
2017-08-29T12:42:12.282Z,24.45
2017-08-29T12:43:13.506Z,24.47
2017-08-29T12:44:14.737Z,24.50
2017-08-29T12:45:16.014Z,24.51
2017-08-29T12:46:19.329Z,24.53
2017-08-29T12:47:20.689Z,24.55